Time;durP1;ratioP1;P1;durP2;ratioP2;P2;SDS_P1;SDS_P2;PMS_P1;PMS_P2;Temp;Humidity;BMP_temperature;BMP_pressure;BME280_temperature;BME280_humidity;BME280_pressure;Samples;Min_cycle;Max_cycle;Signal;HPM_P1;HPM_P2
2022/09/02 00:01:57;;;;;;;16.73;5.78;;;;;;;;;;5010387;28;20050;-66
2022/09/02 00:04:27;;;;;;;15.27;6.38;;;;;;;;;;5010215;28;20054;-65
2022/09/02 00:06:57;;;;;;;14.45;5.85;;;;;;;;;;5010315;28;20050;-65
2022/09/02 00:09:28;;;;;;;14.27;5.57;;;;;;;;;;5010132;28;20072;-66
2022/09/02 00:11:59;;;;;;;13.85;5.85;;;;;;;;;;5020753;28;20050;-66
2022/09/02 00:14:34;;;;;;;15.43;5.85;;;;;;;;;;5007043;28;20064;-65
2022/09/02 00:17:05;;;;;;;13.30;6.18;;;;;;;;;;5016093;28;20516;-66
2022/09/02 00:19:35;;;;;;;12.00;5.80;;;;;;;;;;5049775;28;20053;-65
2022/09/02 00:22:05;;;;;;;14.48;5.93;;;;;;;;;;4999855;28;20484;-65
2022/09/02 00:24:36;;;;;;;12.82;5.07;;;;;;;;;;5049732;28;20048;-66
2022/09/02 00:27:06;;;;;;;15.30;6.97;;;;;;;;;;5049545;28;20079;-65
2022/09/02 00:29:36;;;;;;;14.07;6.10;;;;;;;;;;5018520;28;20453;-65
2022/09/02 00:32:06;;;;;;;18.30;6.18;;;;;;;;;;4993345;28;20453;-65
2022/09/02 00:34:37;;;;;;;18.45;5.50;;;;;;;;;;5009981;28;20054;-65
2022/09/02 00:37:07;;;;;;;12.90;5.53;;;;;;;;;;4992995;28;20049;-65
2022/09/02 00:39:37;;;;;;;15.38;6.05;;;;;;;;;;4989829;28;20061;-65
2022/09/02 00:42:07;;;;;;;18.15;5.63;;;;;;;;;;4990067;28;20058;-65
2022/09/02 00:44:37;;;;;;;14.23;5.70;;;;;;;;;;4989796;28;20051;-65
2022/09/02 00:47:08;;;;;;;13.23;6.45;;;;;;;;;;5009130;28;20838;-65
2022/09/02 00:49:42;;;;;;;16.83;6.55;;;;;;;;;;5025657;28;20383;-65
2022/09/02 00:52:28;;;;;;;16.50;5.88;;;;;;;;;;5009264;28;20054;-65
2022/09/02 00:55:03;;;;;;;11.43;5.55;;;;;;;;;;5021229;28;20056;-65
2022/09/02 00:57:39;;;;;;;14.85;5.72;;;;;;;;;;5009074;28;20061;-65
2022/09/02 01:00:17;;;;;;;15.18;5.32;;;;;;;;;;5028239;28;20052;-65
2022/09/02 01:02:53;;;;;;;15.65;5.93;;;;;;;;;;5028879;28;20061;-65
2022/09/02 01:05:26;;;;;;;11.32;5.65;;;;;;;;;;5028951;28;20614;-65
2022/09/02 01:07:58;;;;;;;14.32;6.05;;;;;;;;;;4995826;28;20053;-65
2022/09/02 01:10:33;;;;;;;17.92;6.07;;;;;;;;;;5028996;28;20069;-65
2022/09/02 01:13:07;;;;;;;14.55;6.35;;;;;;;;;;4979668;28;20057;-65
2022/09/02 01:15:45;;;;;;;13.15;7.00;;;;;;;;;;5048638;28;20390;-66
2022/09/02 01:18:20;;;;;;;14.15;5.15;;;;;;;;;;5015394;28;20072;-65
2022/09/02 01:20:51;;;;;;;14.48;4.95;;;;;;;;;;5032643;28;20072;-65
2022/09/02 01:23:21;;;;;;;11.45;4.70;;;;;;;;;;5048851;28;20060;-66
2022/09/02 01:25:54;;;;;;;13.68;5.03;;;;;;;;;;4995367;28;20058;-65
2022/09/02 01:28:25;;;;;;;9.35;4.45;;;;;;;;;;5005086;28;20050;-65
2022/09/02 01:30:56;;;;;;;14.43;4.55;;;;;;;;;;5001065;28;20047;-66
2022/09/02 01:33:26;;;;;;;11.00;3.88;;;;;;;;;;4922227;28;20078;-66
2022/09/02 01:36:01;;;;;;;9.43;4.57;;;;;;;;;;4970163;28;20055;-66
2022/09/02 01:38:32;;;;;;;11.18;4.13;;;;;;;;;;4969908;28;20067;-65
2022/09/02 01:41:03;;;;;;;10.27;3.92;;;;;;;;;;4970034;28;20082;-65
2022/09/02 01:43:33;;;;;;;8.43;3.92;;;;;;;;;;4953601;28;20057;-65
2022/09/02 01:46:03;;;;;;;10.80;3.75;;;;;;;;;;5008655;28;20046;-65
2022/09/02 01:48:34;;;;;;;8.00;3.45;;;;;;;;;;5012021;28;20049;-64
2022/09/02 01:51:04;;;;;;;9.48;4.03;;;;;;;;;;4992407;28;20057;-64
2022/09/02 01:53:35;;;;;;;7.68;3.67;;;;;;;;;;4973093;28;20498;-64
2022/09/02 01:56:07;;;;;;;9.95;3.60;;;;;;;;;;4988724;28;20058;-65
2022/09/02 01:58:38;;;;;;;9.60;4.10;;;;;;;;;;4983624;28;20447;-66
2022/09/02 02:01:10;;;;;;;7.13;3.47;;;;;;;;;;4988946;28;20050;-64
2022/09/02 02:03:42;;;;;;;8.48;3.53;;;;;;;;;;4989134;28;20061;-65
2022/09/02 02:06:16;;;;;;;8.75;3.47;;;;;;;;;;5010735;28;20050;-65
2022/09/02 02:08:48;;;;;;;8.48;3.60;;;;;;;;;;5027942;28;20060;-65
2022/09/02 02:11:21;;;;;;;12.55;3.78;;;;;;;;;;5030435;28;20473;-66
2022/09/02 02:13:59;;;;;;;9.15;3.55;;;;;;;;;;4992544;28;20506;-65
2022/09/02 02:16:30;;;;;;;11.60;4.20;;;;;;;;;;5012077;28;20038;-65
2022/09/02 02:19:03;;;;;;;10.82;3.55;;;;;;;;;;4992139;28;20415;-66
2022/09/02 02:21:34;;;;;;;6.28;3.45;;;;;;;;;;4992144;28;20522;-64
2022/09/02 02:24:04;;;;;;;9.23;3.60;;;;;;;;;;4923971;29;20055;-66
2022/09/02 02:26:35;;;;;;;9.77;3.75;;;;;;;;;;4918660;29;20606;-65
2022/09/02 02:29:09;;;;;;;7.90;3.38;;;;;;;;;;4959531;28;20058;-65
2022/09/02 02:31:41;;;;;;;8.48;3.88;;;;;;;;;;4972422;28;20047;-66
2022/09/02 02:34:12;;;;;;;10.48;3.97;;;;;;;;;;4947450;28;20594;-66
2022/09/02 02:36:44;;;;;;;10.73;4.30;;;;;;;;;;4988765;28;20062;-66
2022/09/02 02:39:15;;;;;;;8.95;3.88;;;;;;;;;;4986193;28;20149;-67
2022/09/02 02:41:46;;;;;;;8.40;3.65;;;;;;;;;;5008246;28;20062;-65
2022/09/02 02:44:17;;;;;;;11.73;4.50;;;;;;;;;;4972681;28;20503;-65
2022/09/02 02:46:48;;;;;;;13.18;4.22;;;;;;;;;;4953192;29;20059;-63
2022/09/02 02:49:18;;;;;;;10.90;4.00;;;;;;;;;;4940137;28;20050;-65
2022/09/02 02:51:48;;;;;;;12.15;4.65;;;;;;;;;;4972733;28;20066;-65
2022/09/02 02:54:20;;;;;;;11.13;4.22;;;;;;;;;;4961310;28;20055;-65
2022/09/02 02:56:59;;;;;;;9.52;3.92;;;;;;;;;;4965173;28;20463;-64
2022/09/02 02:59:31;;;;;;;10.57;4.40;;;;;;;;;;4972352;28;20059;-65
2022/09/02 03:02:04;;;;;;;9.75;3.63;;;;;;;;;;4972260;28;20047;-65
2022/09/02 03:04:37;;;;;;;10.90;3.63;;;;;;;;;;4991587;28;20553;-65
2022/09/02 03:07:08;;;;;;;7.90;3.92;;;;;;;;;;4906014;29;20516;-64
2022/09/02 03:09:38;;;;;;;13.48;3.97;;;;;;;;;;4898911;29;20052;-65
2022/09/02 03:12:10;;;;;;;10.68;3.92;;;;;;;;;;4945296;29;20062;-65
2022/09/02 03:14:40;;;;;;;9.63;3.88;;;;;;;;;;4953079;29;20582;-66
2022/09/02 03:17:12;;;;;;;12.23;4.25;;;;;;;;;;4929776;29;20428;-65
2022/09/02 03:19:42;;;;;;;8.43;3.83;;;;;;;;;;4911385;29;20064;-65
2022/09/02 03:22:13;;;;;;;8.27;4.13;;;;;;;;;;4918110;29;20062;-65
2022/09/02 03:24:43;;;;;;;8.98;3.95;;;;;;;;;;4945450;29;20062;-65
2022/09/02 03:27:13;;;;;;;9.23;3.90;;;;;;;;;;4936617;29;20637;-65
2022/09/02 03:29:44;;;;;;;11.02;4.07;;;;;;;;;;4932710;29;20059;-66
2022/09/02 03:32:15;;;;;;;8.40;3.50;;;;;;;;;;4933556;29;20074;-65
2022/09/02 03:34:45;;;;;;;10.00;4.32;;;;;;;;;;4933496;29;20055;-66
2022/09/02 03:37:17;;;;;;;9.57;3.90;;;;;;;;;;4914247;29;20056;-68
2022/09/02 03:39:47;;;;;;;8.43;4.40;;;;;;;;;;4871044;29;20131;-65
2022/09/02 03:42:19;;;;;;;8.55;4.00;;;;;;;;;;4914181;29;20052;-66
2022/09/02 03:44:52;;;;;;;9.70;4.13;;;;;;;;;;4893850;29;20063;-65
2022/09/02 03:47:22;;;;;;;11.65;3.80;;;;;;;;;;4906707;29;20072;-65
2022/09/02 03:49:54;;;;;;;8.52;4.50;;;;;;;;;;4924230;29;20108;-65
2022/09/02 03:52:25;;;;;;;9.82;3.70;;;;;;;;;;4900959;29;20047;-65
2022/09/02 03:54:56;;;;;;;10.25;3.70;;;;;;;;;;4920868;28;20055;-65
2022/09/02 03:57:28;;;;;;;8.07;3.72;;;;;;;;;;4971264;28;20051;-66
2022/09/02 04:00:03;;;;;;;10.25;4.82;;;;;;;;;;4950168;28;20056;-65
2022/09/02 04:02:41;;;;;;;9.63;3.80;;;;;;;;;;4933017;29;20057;-65
2022/09/02 04:05:21;;;;;;;8.23;4.25;;;;;;;;;;4951850;28;20063;-65
2022/09/02 04:07:55;;;;;;;8.75;3.63;;;;;;;;;;4875647;29;20049;-65
2022/09/02 04:10:26;;;;;;;11.07;3.47;;;;;;;;;;4941148;28;20061;-65
2022/09/02 04:12:56;;;;;;;10.10;3.58;;;;;;;;;;4955308;28;20481;-65
2022/09/02 04:15:27;;;;;;;10.65;3.72;;;;;;;;;;4965041;28;20055;-66
2022/09/02 04:17:57;;;;;;;8.27;3.67;;;;;;;;;;4990046;28;20055;-65
2022/09/02 04:20:28;;;;;;;7.63;3.83;;;;;;;;;;4990249;28;20062;-66
2022/09/02 04:22:58;;;;;;;9.13;3.83;;;;;;;;;;5003517;28;20054;-65
2022/09/02 04:25:28;;;;;;;13.00;4.18;;;;;;;;;;5029542;28;20409;-65
2022/09/02 04:27:59;;;;;;;10.00;4.40;;;;;;;;;;4989781;28;20460;-64
2022/09/02 04:30:30;;;;;;;8.15;3.42;;;;;;;;;;4963966;28;20051;-64
2022/09/02 04:33:01;;;;;;;9.70;3.72;;;;;;;;;;4983259;28;20047;-64
2022/09/02 04:35:34;;;;;;;10.95;3.75;;;;;;;;;;4982929;28;20050;-64
2022/09/02 04:38:06;;;;;;;10.38;3.10;;;;;;;;;;4982871;28;20192;-67
2022/09/02 04:40:44;;;;;;;13.85;3.58;;;;;;;;;;4954398;28;20050;-67
2022/09/02 04:43:17;;;;;;;11.40;3.47;;;;;;;;;;4961960;28;20459;-64
2022/09/02 04:45:48;;;;;;;10.80;3.42;;;;;;;;;;4909723;29;20048;-66
2022/09/02 04:48:21;;;;;;;4.57;1.77;;;;;;;;;;4931612;29;20079;-69
2022/09/02 04:50:52;;;;;;;8.05;2.08;;;;;;;;;;4924526;28;20057;-72
2022/09/02 04:53:23;;;;;;;9.57;2.00;;;;;;;;;;4936169;29;20056;-70
2022/09/02 04:55:53;;;;;;;6.43;1.90;;;;;;;;;;4924563;29;20064;-71
2022/09/02 04:58:27;;;;;;;2.20;1.25;;;;;;;;;;4939378;28;20058;-69
2022/09/02 05:00:58;;;;;;;11.85;1.60;;;;;;;;;;4970355;28;20067;-68
2022/09/02 05:03:30;;;;;;;2.88;1.17;;;;;;;;;;4952772;28;20055;-68
2022/09/02 05:06:06;;;;;;;2.50;1.02;;;;;;;;;;4931858;29;20051;-68
2022/09/02 05:08:41;;;;;;;2.67;1.00;;;;;;;;;;4932259;29;20507;-68
2022/09/02 05:11:18;;;;;;;2.65;1.10;;;;;;;;;;4931401;29;20052;-73
2022/09/02 05:13:51;;;;;;;2.67;1.27;;;;;;;;;;5003951;28;20053;-68
2022/09/02 05:16:44;;;;;;;2.60;1.00;;;;;;;;;;5023691;28;20061;-66
2022/09/02 05:19:17;;;;;;;2.25;0.88;;;;;;;;;;4977787;28;20054;-65
2022/09/02 05:21:55;;;;;;;2.97;1.10;;;;;;;;;;4953314;28;20058;-66
2022/09/02 05:24:38;;;;;;;3.10;1.08;;;;;;;;;;4966846;28;20082;-64
2022/09/02 05:27:14;;;;;;;5.80;1.40;;;;;;;;;;4931341;28;20051;-63
2022/09/02 05:29:46;;;;;;;3.25;0.90;;;;;;;;;;4931479;29;20078;-63
2022/09/02 05:32:21;;;;;;;1.58;0.57;;;;;;;;;;4912686;29;20055;-63
2022/09/02 05:34:54;;;;;;;2.70;0.98;;;;;;;;;;4897450;29;20052;-64
2022/09/02 05:37:24;;;;;;;;;;;;;;;;;;4913175;29;20060;-64
2022/09/02 05:39:54;;;;;;;2.15;0.90;;;;;;;;;;4912818;29;19923;-65
2022/09/02 05:42:25;;;;;;;2.15;0.60;;;;;;;;;;4912337;29;20059;-66
2022/09/02 05:44:57;;;;;;;2.10;0.80;;;;;;;;;;4912672;29;20052;-65
2022/09/02 05:47:28;;;;;;;2.58;1.08;;;;;;;;;;4948059;29;20377;-66
2022/09/02 05:50:03;;;;;;;2.97;0.68;;;;;;;;;;4916547;29;20056;-65
2022/09/02 05:52:36;;;;;;;2.13;1.00;;;;;;;;;;4916569;29;20055;-65
2022/09/02 05:55:09;;;;;;;2.35;1.35;;;;;;;;;;4897838;29;20096;-65
2022/09/02 05:57:40;;;;;;;1.73;0.57;;;;;;;;;;4937147;28;20241;-66
2022/09/02 06:00:11;;;;;;;2.22;1.00;;;;;;;;;;4995413;28;20410;-65
2022/09/02 06:02:55;;;;;;;3.15;0.80;;;;;;;;;;5021090;28;20042;-65
2022/09/02 06:05:31;;;;;;;3.85;0.90;;;;;;;;;;5032002;28;20521;-65
2022/09/02 06:08:16;;;;;;;2.63;1.30;;;;;;;;;;5015527;28;20106;-65
2022/09/02 06:10:46;;;;;;;4.47;1.17;;;;;;;;;;5011690;28;20050;-65
2022/09/02 06:13:21;;;;;;;3.30;0.98;;;;;;;;;;5012126;28;20062;-67
2022/09/02 06:15:54;;;;;;;1.95;0.80;;;;;;;;;;5012239;28;20516;-65
2022/09/02 06:18:28;;;;;;;3.33;1.63;;;;;;;;;;5027696;28;20057;-66
2022/09/02 06:21:03;;;;;;;3.55;0.77;;;;;;;;;;4958330;28;20058;-66
2022/09/02 06:23:40;;;;;;;3.38;0.90;;;;;;;;;;4953919;28;20062;-68
2022/09/02 06:26:16;;;;;;;4.45;1.20;;;;;;;;;;4922215;29;20650;-67
2022/09/02 06:28:47;;;;;;;3.45;1.08;;;;;;;;;;4953686;28;20071;-66
2022/09/02 06:31:20;;;;;;;2.88;1.08;;;;;;;;;;4940452;28;20426;-67
2022/09/02 06:33:54;;;;;;;3.33;1.13;;;;;;;;;;4935431;29;20054;-66
2022/09/02 06:36:28;;;;;;;5.30;0.95;;;;;;;;;;4885073;29;20056;-67
2022/09/02 06:39:01;;;;;;;2.97;1.05;;;;;;;;;;4882331;29;20056;-67
2022/09/02 06:41:34;;;;;;;1.83;1.00;;;;;;;;;;4951515;29;20058;-69
2022/09/02 06:44:09;;;;;;;2.83;1.27;;;;;;;;;;4920749;29;20047;-68
2022/09/02 06:46:48;;;;;;;3.65;1.25;;;;;;;;;;4915075;29;20059;-68
2022/09/02 06:49:25;;;;;;;2.65;1.08;;;;;;;;;;4880309;29;20052;-70
2022/09/02 06:51:58;;;;;;;3.65;1.33;;;;;;;;;;4925779;29;20060;-70
2022/09/02 06:54:33;;;;;;;3.67;1.23;;;;;;;;;;4914594;29;20067;-69
2022/09/02 06:57:10;;;;;;;3.63;1.40;;;;;;;;;;4914148;29;20059;-67
2022/09/02 06:59:43;;;;;;;5.63;1.25;;;;;;;;;;4881699;29;20131;-66
2022/09/02 07:02:14;;;;;;;3.55;1.33;;;;;;;;;;4914680;29;20657;-68
2022/09/02 07:07:40;;;;;;;4.30;1.20;;;;;;;;;;4896077;29;20281;-67
2022/09/02 07:10:14;;;;;;;3.53;1.20;;;;;;;;;;4895853;29;20052;-67
2022/09/02 07:12:50;;;;;;;5.40;1.30;;;;;;;;;;4895097;29;20137;-66
2022/09/02 07:15:20;;;;;;;3.47;1.20;;;;;;;;;;4880011;29;20064;-67
2022/09/02 07:17:52;;;;;;;3.10;1.30;;;;;;;;;;4854834;29;20050;-66
2022/09/02 07:20:32;;;;;;;2.60;1.13;;;;;;;;;;4858671;29;20057;-66
2022/09/02 07:23:04;;;;;;;3.20;1.17;;;;;;;;;;4849981;29;20058;-67
2022/09/02 07:25:40;;;;;;;3.33;1.30;;;;;;;;;;4895088;29;20060;-66
2022/09/02 07:28:12;;;;;;;3.33;1.10;;;;;;;;;;4913584;29;20052;-66
2022/09/02 07:30:45;;;;;;;3.70;1.52;;;;;;;;;;4933158;29;20051;-66
2022/09/02 07:33:19;;;;;;;3.70;1.27;;;;;;;;;;4898367;29;20052;-66
2022/09/02 07:35:52;;;;;;;5.00;1.33;;;;;;;;;;4929827;29;20056;-66
2022/09/02 07:38:23;;;;;;;2.53;1.02;;;;;;;;;;4914332;29;20060;-65
2022/09/02 07:40:54;;;;;;;2.40;1.08;;;;;;;;;;4927596;29;20053;-70
2022/09/02 07:43:30;;;;;;;2.72;1.48;;;;;;;;;;4914010;29;20060;-68
2022/09/02 07:46:02;;;;;;;2.50;1.10;;;;;;;;;;4929643;29;20063;-72
2022/09/02 07:48:35;;;;;;;2.88;1.13;;;;;;;;;;4913923;29;20059;-72
2022/09/02 07:51:08;;;;;;;1.70;0.80;;;;;;;;;;4885726;29;20051;-72
2022/09/02 07:53:39;;;;;;;2.10;1.05;;;;;;;;;;4904867;29;20099;-71
2022/09/02 07:56:10;;;;;;;2.45;0.98;;;;;;;;;;4903470;29;20060;-68
2022/09/02 07:58:45;;;;;;;2.15;0.90;;;;;;;;;;4913571;29;20060;-72
2022/09/02 08:01:15;;;;;;;2.35;1.50;;;;;;;;;;4885486;29;20055;-67
2022/09/02 08:03:53;;;;;;;3.13;1.20;;;;;;;;;;4904659;29;20068;-67
2022/09/02 08:06:30;;;;;;;5.47;1.38;;;;;;;;;;4895012;29;20059;-67
2022/09/02 08:09:12;;;;;;;2.85;1.30;;;;;;;;;;4880750;29;20065;-67
2022/09/02 08:11:46;;;;;;;2.42;1.17;;;;;;;;;;4873972;29;20059;-67
2022/09/02 08:14:23;;;;;;;2.33;1.02;;;;;;;;;;4897829;29;20052;-66
2022/09/02 08:16:55;;;;;;;3.03;1.20;;;;;;;;;;4913365;29;20436;-66
2022/09/02 08:19:26;;;;;;;2.65;1.15;;;;;;;;;;4913619;29;20176;-66
2022/09/02 08:22:04;;;;;;;2.80;1.05;;;;;;;;;;4929086;29;20064;-66
2022/09/02 08:24:37;;;;;;;5.15;1.40;;;;;;;;;;4932755;29;20051;-66
2022/09/02 08:27:09;;;;;;;2.97;1.20;;;;;;;;;;4913109;29;20082;-66
2022/09/02 08:29:40;;;;;;;3.28;1.50;;;;;;;;;;4929850;29;20058;-66
2022/09/02 08:32:11;;;;;;;6.45;1.42;;;;;;;;;;4967787;28;20054;-66
2022/09/02 08:34:41;;;;;;;3.10;1.50;;;;;;;;;;4973787;28;20388;-66
2022/09/02 08:37:11;;;;;;;4.18;1.58;;;;;;;;;;5022924;28;20068;-65
2022/09/02 08:39:41;;;;;;;3.35;1.50;;;;;;;;;;5045910;28;20057;-66
2022/09/02 08:42:41;;;;;;;3.03;1.00;;;;;;;;;;5049373;28;20056;-65
2022/09/02 08:45:24;;;;;;;3.28;1.30;;;;;;;;;;5029441;28;20053;-65
2022/09/02 08:48:15;;;;;;;2.72;1.30;;;;;;;;;;4996711;28;20056;-65
2022/09/02 08:50:46;;;;;;;;;;;;;;;;;;5030235;28;20061;-65
2022/09/02 08:53:26;;;;;;;3.83;1.30;;;;;;;;;;5009288;28;19921;-65
2022/09/02 08:55:58;;;;;;;3.58;1.33;;;;;;;;;;4989394;28;20050;-65
2022/09/02 08:58:38;;;;;;;3.30;1.52;;;;;;;;;;4990005;28;20077;-65
2022/09/02 09:01:30;;;;;;;3.42;1.48;;;;;;;;;;4989674;28;20061;-65
2022/09/02 09:04:55;;;;;;;3.28;1.33;;;;;;;;;;4981000;28;20057;-65
2022/09/02 09:07:30;;;;;;;2.95;1.35;;;;;;;;;;4874932;29;20057;-65
2022/09/02 09:10:21;;;;;;;3.22;1.30;;;;;;;;;;4875582;29;20053;-64
2022/09/02 09:13:11;;;;;;;4.65;1.48;;;;;;;;;;4859110;29;20547;-65
2022/09/02 09:16:03;;;;;;;4.43;1.55;;;;;;;;;;4875373;29;20061;-65
2022/09/02 09:18:39;;;;;;;3.10;1.40;;;;;;;;;;4875229;29;20057;-64
2022/09/02 09:21:09;;;;;;;3.15;1.50;;;;;;;;;;4874888;29;20061;-64
2022/09/02 09:23:40;;;;;;;4.25;1.58;;;;;;;;;;4856867;29;20427;-67
2022/09/02 09:26:18;;;;;;;2.45;1.20;;;;;;;;;;4856777;29;20054;-66
2022/09/02 09:28:50;;;;;;;3.85;1.48;;;;;;;;;;4856404;29;20061;-66
2022/09/02 09:31:21;;;;;;;;;;;;;;;;;;4866609;29;20454;-66
2022/09/02 09:34:06;;;;;;;4.32;1.40;;;;;;;;;;4874320;29;19930;-64
2022/09/02 09:36:42;;;;;;;4.20;1.20;;;;;;;;;;4912939;29;20052;-65
2022/09/02 09:39:27;;;;;;;3.22;1.20;;;;;;;;;;4912848;29;20064;-67
2022/09/02 09:42:03;;;;;;;3.78;1.42;;;;;;;;;;4915947;29;20394;-69
2022/09/02 09:45:25;;;;;;;2.13;1.13;;;;;;;;;;4969398;28;20046;-68
2022/09/02 09:48:21;;;;;;;2.05;1.02;;;;;;;;;;4931770;29;20051;-68
2022/09/02 09:50:55;;;;;;;4.63;1.38;;;;;;;;;;4917966;29;20058;-67
2022/09/02 09:53:32;;;;;;;7.03;1.50;;;;;;;;;;4877826;29;20052;-66
2022/09/02 09:56:06;;;;;;;3.50;1.42;;;;;;;;;;4902321;29;20059;-66
2022/09/02 09:58:41;;;;;;;3.05;1.33;;;;;;;;;;4912712;29;20059;-66
2022/09/02 10:01:31;;;;;;;3.45;1.48;;;;;;;;;;4912503;29;20060;-66
2022/09/02 10:04:11;;;;;;;3.67;1.80;;;;;;;;;;4912729;29;20064;-65
2022/09/02 10:07:02;;;;;;;3.60;1.35;;;;;;;;;;4912535;29;20052;-65
2022/09/02 10:09:36;;;;;;;3.45;1.70;;;;;;;;;;4912451;29;20079;-66
2022/09/02 10:12:11;;;;;;;5.80;1.58;;;;;;;;;;4896389;29;20552;-65
2022/09/02 10:14:47;;;;;;;3.40;1.60;;;;;;;;;;4927876;29;20056;-65
2022/09/02 10:17:54;;;;;;;4.18;1.73;;;;;;;;;;4960238;28;20060;-65
2022/09/02 10:20:38;;;;;;;4.18;1.63;;;;;;;;;;4969690;28;20058;-65
2022/09/02 10:23:49;;;;;;;3.92;1.73;;;;;;;;;;4924124;28;20052;-64
2022/09/02 10:26:43;;;;;;;7.63;2.83;;;;;;;;;;5068322;28;20056;-64
2022/09/02 10:29:38;;;;;;;6.20;2.50;;;;;;;;;;5083883;28;20056;-64
2022/09/02 10:32:26;;;;;;;5.35;2.08;;;;;;;;;;5108953;28;20052;-64
2022/09/02 10:35:21;;;;;;;4.78;2.25;;;;;;;;;;5112480;28;20044;-64
2022/09/02 10:37:59;;;;;;;8.98;3.58;;;;;;;;;;5045925;28;20055;-64
2022/09/02 10:40:36;;;;;;;;;;;;;;;;;;5113040;28;20043;-64
2022/09/02 10:43:44;;;;;;;7.15;2.80;;;;;;;;;;5078502;28;19920;-64
2022/09/02 10:46:21;;;;;;;5.63;2.33;;;;;;;;;;5078253;28;20059;-64
2022/09/02 10:48:55;;;;;;;7.90;2.53;;;;;;;;;;5078249;28;20055;-64
2022/09/02 10:51:41;;;;;;;6.47;2.30;;;;;;;;;;5061221;28;20499;-64
2022/09/02 10:54:23;;;;;;;4.88;2.17;;;;;;;;;;5071091;28;20145;-64
2022/09/02 10:57:14;;;;;;;8.18;4.13;;;;;;;;;;5070464;28;20056;-64
2022/09/02 10:59:58;;;;;;;8.85;4.72;;;;;;;;;;5051141;28;20076;-65
2022/09/02 11:02:37;;;;;;;6.35;3.03;;;;;;;;;;5051259;28;20057;-65
2022/09/02 11:05:22;;;;;;;4.32;2.22;;;;;;;;;;5051095;28;20061;-64
2022/09/02 11:08:24;;;;;;;5.25;2.83;;;;;;;;;;5050961;28;20413;-67
2022/09/02 11:11:10;;;;;;;5.22;2.42;;;;;;;;;;5020138;28;20044;-64
2022/09/02 11:14:06;;;;;;;5.63;2.80;;;;;;;;;;5050844;28;20049;-64
2022/09/02 11:16:47;;;;;;;5.03;2.28;;;;;;;;;;5051006;28;20057;-65
2022/09/02 11:19:31;;;;;;;5.43;2.45;;;;;;;;;;4986585;28;20056;-67
2022/09/02 11:22:27;;;;;;;8.27;2.90;;;;;;;;;;5033766;28;20408;-66
2022/09/02 11:25:24;;;;;;;5.63;2.50;;;;;;;;;;5050881;28;20057;-66
2022/09/02 11:27:55;;;;;;;10.65;3.42;;;;;;;;;;4932564;29;20043;-67
2022/09/02 11:30:51;;;;;;;8.55;4.10;;;;;;;;;;4889811;29;20059;-67
2022/09/02 11:33:48;;;;;;;7.45;3.45;;;;;;;;;;4898589;29;20710;-68
2022/09/02 11:36:18;;;;;;;7.72;3.53;;;;;;;;;;4896978;29;20060;-70
2022/09/02 11:39:04;;;;;;;7.90;4.35;;;;;;;;;;4914342;29;20048;-68
2022/09/02 11:42:03;;;;;;;7.50;4.05;;;;;;;;;;4914568;29;20203;-67
2022/09/02 11:44:59;;;;;;;6.15;3.25;;;;;;;;;;4913802;29;20051;-65
2022/09/02 11:47:35;;;;;;;6.93;2.60;;;;;;;;;;4914009;29;20052;-64
2022/09/02 11:50:22;;;;;;;7.32;3.50;;;;;;;;;;4898582;29;20060;-64
2022/09/02 11:53:26;;;;;;;8.45;3.92;;;;;;;;;;4913762;29;20059;-65
2022/09/02 11:56:03;;;;;;;13.95;8.48;;;;;;;;;;4849017;29;20060;-67
2022/09/02 11:58:46;;;;;;;10.93;4.93;;;;;;;;;;4895434;29;20061;-67
2022/09/02 12:01:32;;;;;;;7.45;3.92;;;;;;;;;;4864103;29;20061;-67
2022/09/02 12:04:12;;;;;;;11.23;4.72;;;;;;;;;;4882466;29;20063;-66
2022/09/02 12:07:05;;;;;;;9.35;4.53;;;;;;;;;;4913965;29;20052;-66
2022/09/02 12:09:49;;;;;;;9.57;4.53;;;;;;;;;;4919358;28;20059;-66
2022/09/02 12:12:38;;;;;;;8.85;4.32;;;;;;;;;;4939065;28;20057;-67
2022/09/02 12:15:18;;;;;;;11.27;4.63;;;;;;;;;;4980753;28;20053;-66
2022/09/02 12:17:52;;;;;;;8.75;4.43;;;;;;;;;;5029864;28;20052;-66
2022/09/02 12:20:43;;;;;;;7.70;3.47;;;;;;;;;;5029682;28;20050;-66
2022/09/02 12:23:55;;;;;;;9.95;3.88;;;;;;;;;;5030113;28;20068;-66
2022/09/02 12:26:40;;;;;;;7.35;3.47;;;;;;;;;;4997044;28;20430;-67
2022/09/02 12:29:23;;;;;;;7.35;3.75;;;;;;;;;;5029526;28;20049;-65
2022/09/02 12:31:54;;;;;;;10.55;3.88;;;;;;;;;;5038101;28;20066;-68
2022/09/02 12:34:24;;;;;;;7.95;4.20;;;;;;;;;;5089157;28;20055;-68
2022/09/02 12:36:59;;;;;;;8.63;4.20;;;;;;;;;;5089961;28;20149;-67
2022/09/02 12:39:34;;;;;;;13.45;4.10;;;;;;;;;;5089692;28;20148;-67
2022/09/02 12:42:11;;;;;;;8.20;3.88;;;;;;;;;;5089785;28;20036;-65
2022/09/02 12:45:05;;;;;;;8.88;3.90;;;;;;;;;;5033219;28;20045;-65
2022/09/02 12:48:02;;;;;;;7.88;3.83;;;;;;;;;;5062562;28;20060;-66
2022/09/02 12:50:55;;;;;;;8.07;3.90;;;;;;;;;;5069538;28;20236;-66
2022/09/02 12:53:45;;;;;;;12.38;6.45;;;;;;;;;;4980498;28;20053;-67
2022/09/02 12:56:21;;;;;;;7.90;4.80;;;;;;;;;;5028390;28;20080;-69
2022/09/02 12:58:57;;;;;;;7.22;4.07;;;;;;;;;;4986010;28;20050;-66
2022/09/02 13:01:47;;;;;;;7.68;3.95;;;;;;;;;;5001204;28;20051;-66
2022/09/02 13:04:41;;;;;;;5.43;2.58;;;;;;;;;;4977065;28;20053;-69
2022/09/02 13:07:32;;;;;;;5.35;2.35;;;;;;;;;;5009485;28;20057;-66
2022/09/02 13:10:22;;;;;;;283.42;140.80;;;;;;;;;;5009236;28;20062;-66
2022/09/02 13:13:25;;;;;;;10.80;5.05;;;;;;;;;;4992689;28;20577;-65
2022/09/02 13:16:04;;;;;;;10.65;6.30;;;;;;;;;;4970446;28;20419;-65
2022/09/02 13:19:11;;;;;;;10.52;4.70;;;;;;;;;;4938500;28;20066;-66
2022/09/02 13:22:08;;;;;;;11.85;6.63;;;;;;;;;;4942255;28;20122;-66
2022/09/02 13:25:12;;;;;;;9.68;3.75;;;;;;;;;;4941581;28;20077;-66
2022/09/02 13:28:07;;;;;;;6.82;2.95;;;;;;;;;;4989533;28;20495;-65
2022/09/02 13:30:55;;;;;;;13.98;7.35;;;;;;;;;;4999357;28;20058;-66
2022/09/02 13:33:27;;;;;;;8.30;3.72;;;;;;;;;;5009058;28;20062;-65
2022/09/02 13:35:58;;;;;;;4.95;2.25;;;;;;;;;;5006077;28;20041;-66
2022/09/02 13:38:31;;;;;;;5.85;3.30;;;;;;;;;;5068560;28;20121;-69
2022/09/02 13:41:02;;;;;;;4.78;2.33;;;;;;;;;;5020192;28;20052;-71
2022/09/02 13:43:33;;;;;;;3.95;1.92;;;;;;;;;;5068808;28;20048;-72
2022/09/02 13:46:03;;;;;;;9.60;2.55;;;;;;;;;;5069047;28;20052;-67
2022/09/02 13:48:38;;;;;;;5.78;2.55;;;;;;;;;;5068845;28;20049;-66
2022/09/02 13:51:14;;;;;;;6.80;2.88;;;;;;;;;;5068752;28;20184;-68
2022/09/02 13:53:49;;;;;;;8.75;3.83;;;;;;;;;;5135150;27;20515;-69
2022/09/02 13:56:40;;;;;;;3.72;1.70;;;;;;;;;;5129857;28;20125;-68
2022/09/02 13:59:11;;;;;;;2.83;1.23;;;;;;;;;;5079080;28;20058;-71
2022/09/02 14:01:41;;;;;;;3.03;1.42;;;;;;;;;;5109009;28;20047;-72
2022/09/02 14:04:15;;;;;;;6.53;2.03;;;;;;;;;;5109284;28;20059;-68
2022/09/02 14:06:47;;;;;;;3.83;1.58;;;;;;;;;;5060663;28;20051;-68
2022/09/02 14:09:26;;;;;;;6.60;2.83;;;;;;;;;;5092490;28;20056;-68
2022/09/02 14:11:58;;;;;;;4.18;1.95;;;;;;;;;;5093084;28;20078;-68
2022/09/02 14:14:29;;;;;;;5.25;2.47;;;;;;;;;;5075339;28;20049;-68
2022/09/02 14:17:24;;;;;;;4.82;1.92;;;;;;;;;;5056427;28;20067;-69
2022/09/02 14:20:20;;;;;;;5.13;2.17;;;;;;;;;;5072016;28;20075;-68
2022/09/02 14:22:55;;;;;;;5.28;2.25;;;;;;;;;;5072591;28;20056;-69
2022/09/02 14:25:29;;;;;;;5.25;2.28;;;;;;;;;;5072419;28;20522;-68
2022/09/02 14:28:00;;;;;;;3.95;1.98;;;;;;;;;;5052025;28;20053;-68
2022/09/02 14:30:33;;;;;;;6.15;2.40;;;;;;;;;;5052079;28;20057;-70
2022/09/02 14:33:24;;;;;;;6.40;2.33;;;;;;;;;;5003052;28;20080;-68
2022/09/02 14:36:00;;;;;;;6.95;2.72;;;;;;;;;;5002695;28;20060;-69
2022/09/02 14:38:48;;;;;;;6.00;2.72;;;;;;;;;;5052031;28;20057;-69
2022/09/02 14:41:22;;;;;;;5.82;2.92;;;;;;;;;;5035708;28;20056;-66
2022/09/02 14:44:09;;;;;;;6.13;2.72;;;;;;;;;;5031706;28;20591;-69
2022/09/02 14:47:04;;;;;;;7.85;3.38;;;;;;;;;;5048381;28;20057;-66
2022/09/02 14:49:38;;;;;;;7.40;2.20;;;;;;;;;;5071780;28;20060;-66
2022/09/02 14:52:35;;;;;;;4.13;2.13;;;;;;;;;;5071906;28;20060;-68
2022/09/02 14:55:05;;;;;;;3.88;1.45;;;;;;;;;;5037736;28;20056;-64
2022/09/02 14:57:37;;;;;;;4.90;1.40;;;;;;;;;;5044215;28;20519;-65
2022/09/02 15:00:12;;;;;;;4.05;1.55;;;;;;;;;;5051672;28;20057;-66
2022/09/02 15:02:48;;;;;;;5.00;1.92;;;;;;;;;;5067411;28;20052;-65
2022/09/02 15:05:20;;;;;;;4.07;1.67;;;;;;;;;;5023930;28;20054;-66
2022/09/02 15:07:51;;;;;;;3.63;1.65;;;;;;;;;;5011526;28;20061;-66
2022/09/02 15:10:21;;;;;;;3.63;1.77;;;;;;;;;;4959407;28;20058;-67
2022/09/02 15:12:57;;;;;;;2.50;1.20;;;;;;;;;;4992160;28;20060;-68
2022/09/02 15:15:27;;;;;;;4.20;1.63;;;;;;;;;;4991798;28;20050;-70
2022/09/02 15:17:58;;;;;;;10.90;5.55;;;;;;;;;;4990880;28;20058;-73
2022/09/02 15:20:31;;;;;;;5.28;2.05;;;;;;;;;;4977016;28;20054;-76
2022/09/02 15:23:01;;;;;;;4.80;2.13;;;;;;;;;;4978930;28;20068;-76
2022/09/02 15:25:34;;;;;;;4.97;2.35;;;;;;;;;;5015671;28;20413;-75
2022/09/02 15:28:05;;;;;;;4.03;2.08;;;;;;;;;;5030691;28;20564;-75
2022/09/02 15:30:35;;;;;;;19.38;7.28;;;;;;;;;;5031021;28;20064;-73
2022/09/02 15:33:08;;;;;;;7.55;2.78;;;;;;;;;;5030982;28;20049;-71
2022/09/02 15:35:46;;;;;;;4.55;2.17;;;;;;;;;;5014345;28;20632;-72
2022/09/02 15:38:16;;;;;;;6.47;1.98;;;;;;;;;;4981696;28;20060;-72
2022/09/02 15:40:47;;;;;;;3.45;1.40;;;;;;;;;;5030870;28;20053;-74
2022/09/02 15:43:19;;;;;;;2.38;1.20;;;;;;;;;;5030972;28;20054;-71